Search for airport 
image banner adimage banner ad
image banner ad

DAUK - Touggourt / Sidi Mahdi

Located in , Algeria

ICAO - DAUK, IATA - TGR

Data provided by Airmate  

General information

Coordinates: N33°3'36" E6°5'14"
Elevation is 278 feet MSL.
 
Rated:
View ratings: [VIEW]


View others Airports in Ouargla Province

Operational data

Open for public use
Current time UTC:
Current local time:
Weather
METAR: DAUK 070100Z 09006KT CAVOK 28/10 Q1014
TAF: TAF DAUK 062300Z 0700/0709 08008KT CAVOK
View NOTAMs / SUP AIP / TFR affecting this airport [VIEW]
Communications frequencies: [VIEW]

Runways:

RWY identifierQFULength (ft)Width (ft)SurfaceLDA (ft)
019843148ASP
19189°9843148

Airport contact information

Address: Algeria

Satellite view of DAUK